Time,TemperatureF,DewpointF,PressureIn,WindDirection,WindDirectionDegrees,WindSpeedMPH,WindSpeedGustMPH,Humidity,HourlyPrecipIn,Conditions,Clouds,dailyrainin,SoftwareType,DateUTC
2013-08-13 00:01:00,73.8,72.5,30.04,WSW,242,0.0,0.0,96,0.00,,,0.00,meteohub,2013-08-13 05:01:00,
2013-08-13 00:06:00,73.8,72.5,30.04,WSW,242,0.0,0.0,96,0.00,,,0.00,meteohub,2013-08-13 05:06:00,
2013-08-13 00:11:00,73.6,72.3,30.04,WSW,242,0.0,0.0,96,0.00,,,0.00,meteohub,2013-08-13 05:11:00,
2013-08-13 00:16:00,73.6,72.3,30.04,WSW,242,0.0,0.0,96,0.00,,,0.00,meteohub,2013-08-13 05:16:00,
2013-08-13 00:21:00,73.6,72.3,30.04,WSW,242,0.0,0.0,96,0.00,,,0.00,meteohub,2013-08-13 05:21:00,
2013-08-13 00:27:00,73.6,72.3,30.04,WSW,242,0.0,0.0,96,0.00,,,0.00,meteohub,2013-08-13 05:27:00,
2013-08-13 00:32:00,73.6,72.3,30.03,WSW,242,0.0,1.0,96,0.00,,,0.00,meteohub,2013-08-13 05:32:00,
2013-08-13 00:37:00,73.8,72.5,30.03,WSW,242,0.0,1.0,96,0.00,,,0.00,meteohub,2013-08-13 05:37:00,
2013-08-13 00:42:00,73.8,72.5,30.03,WSW,242,0.0,1.0,96,0.00,,,0.00,meteohub,2013-08-13 05:42:00,
2013-08-13 00:47:00,73.8,72.5,30.03,WSW,242,0.0,1.0,96,0.00,,,0.00,meteohub,2013-08-13 05:47:00,
2013-08-13 00:52:00,73.8,72.5,30.02,WSW,242,0.0,1.0,96,0.00,,,0.00,meteohub,2013-08-13 05:52:00,
2013-08-13 00:57:00,73.8,72.5,30.02,SW,236,0.0,1.0,96,0.00,,,0.00,meteohub,2013-08-13 05:57:00,
2013-08-13 01:02:00,73.8,72.5,30.02,SW,236,0.0,1.0,96,0.00,,,0.00,meteohub,2013-08-13 06:02:00,
2013-08-13 01:07:00,73.8,72.5,30.02,SW,236,0.0,1.0,96,0.00,,,0.00,meteohub,2013-08-13 06:07:00,
2013-08-13 01:12:00,73.8,72.5,30.02,WSW,237,0.0,1.0,96,0.00,,,0.00,meteohub,2013-08-13 06:12:00,
2013-08-13 01:17:00,73.8,72.5,30.02,WSW,238,0.0,2.0,96,0.00,,,0.00,meteohub,2013-08-13 06:17:00,
2013-08-13 01:22:00,73.8,72.5,30.02,WSW,238,0.0,2.0,96,0.00,,,0.00,meteohub,2013-08-13 06:22:00,
2013-08-13 01:27:00,73.8,72.5,30.02,WSW,251,1.0,3.0,96,0.00,,,0.00,meteohub,2013-08-13 06:27:00,
2013-08-13 01:32:00,73.8,72.5,30.03,WSW,251,1.0,3.0,96,0.00,,,0.00,meteohub,2013-08-13 06:32:00,
2013-08-13 01:37:00,73.8,72.5,30.02,WSW,251,0.0,3.0,96,0.00,,,0.00,meteohub,2013-08-13 06:37:00,
2013-08-13 01:42:00,73.8,72.5,30.02,WSW,251,1.0,2.0,96,0.00,,,0.00,meteohub,2013-08-13 06:42:00,
2013-08-13 01:47:00,73.6,72.3,30.02,West,274,1.0,3.0,96,0.00,,,0.00,meteohub,2013-08-13 06:47:00,
2013-08-13 01:52:00,73.6,72.3,30.02,West,274,2.0,3.0,96,0.00,,,0.00,meteohub,2013-08-13 06:52:00,
2013-08-13 01:57:00,73.6,72.3,30.02,West,274,0.0,3.0,96,0.00,,,0.00,meteohub,2013-08-13 06:57:00,
2013-08-13 02:02:00,73.6,72.1,30.02,West,274,1.0,3.0,95,0.00,,,0.00,meteohub,2013-08-13 07:02:00,
2013-08-13 02:07:00,73.6,72.1,30.02,West,274,1.0,3.0,95,0.00,,,0.00,meteohub,2013-08-13 07:07:00,
2013-08-13 02:12:00,73.6,72.1,30.02,West,274,0.0,3.0,95,0.00,,,0.00,meteohub,2013-08-13 07:12:00,
2013-08-13 02:17:00,73.4,72.0,30.02,West,274,0.0,2.0,95,0.00,,,0.00,meteohub,2013-08-13 07:17:00,
2013-08-13 02:22:00,73.2,71.8,30.02,West,274,0.0,2.0,95,0.00,,,0.00,meteohub,2013-08-13 07:22:00,
2013-08-13 02:27:00,73.2,71.8,30.01,West,274,0.0,1.0,95,0.00,,,0.00,meteohub,2013-08-13 07:27:00,
2013-08-13 02:32:00,73.2,71.8,30.02,West,274,0.0,1.0,95,0.00,,,0.00,meteohub,2013-08-13 07:32:00,
2013-08-13 02:37:00,73.2,71.8,30.01,West,274,0.0,1.0,95,0.00,,,0.00,meteohub,2013-08-13 07:37:00,
2013-08-13 02:42:00,73.2,72.0,30.01,West,274,1.0,1.0,96,0.00,,,0.00,meteohub,2013-08-13 07:42:00,
2013-08-13 02:47:00,73.2,72.0,30.01,West,274,0.0,1.0,96,0.00,,,0.00,meteohub,2013-08-13 07:47:00,
2013-08-13 02:52:00,73.0,71.8,30.01,West,274,0.0,1.0,96,0.00,,,0.00,meteohub,2013-08-13 07:52:00,
2013-08-13 02:57:00,73.0,71.8,30.01,West,274,0.0,1.0,96,0.00,,,0.00,meteohub,2013-08-13 07:57:00,
2013-08-13 03:02:00,73.0,71.8,30.00,West,274,0.0,0.0,96,0.00,,,0.00,meteohub,2013-08-13 08:02:00,
2013-08-13 03:07:00,72.9,71.6,30.00,West,274,0.0,0.0,96,0.00,,,0.00,meteohub,2013-08-13 08:07:00,
2013-08-13 03:12:00,72.9,71.4,30.00,West,274,0.0,0.0,95,0.00,,,0.00,meteohub,2013-08-13 08:12:00,
2013-08-13 03:17:00,72.9,71.4,30.00,West,274,0.0,0.0,95,0.00,,,0.00,meteohub,2013-08-13 08:17:00,
2013-08-13 03:22:00,72.9,71.4,30.00,West,274,0.0,0.0,95,0.00,,,0.00,meteohub,2013-08-13 08:22:00,
2013-08-13 03:27:00,72.9,71.6,30.00,West,274,0.0,0.0,96,0.00,,,0.00,meteohub,2013-08-13 08:27:00,
2013-08-13 03:32:00,72.9,71.6,30.00,West,274,0.0,1.0,96,0.00,,,0.00,meteohub,2013-08-13 08:32:00,
2013-08-13 03:37:00,72.9,71.6,30.00,SSW,193,0.0,1.0,96,0.00,,,0.00,meteohub,2013-08-13 08:37:00,
2013-08-13 03:42:00,72.9,71.6,30.00,SSW,210,2.0,2.0,96,0.00,,,0.00,meteohub,2013-08-13 08:42:00,
2013-08-13 03:47:00,73.0,71.8,30.00,SSW,210,0.0,2.0,96,0.00,,,0.00,meteohub,2013-08-13 08:47:00,
2013-08-13 03:52:00,73.0,71.8,30.00,SSW,210,1.0,2.0,96,0.00,,,0.00,meteohub,2013-08-13 08:52:00,
2013-08-13 03:57:00,73.0,71.8,29.99,SSW,210,0.0,2.0,96,0.00,,,0.00,meteohub,2013-08-13 08:57:00,
2013-08-13 04:02:00,73.0,71.8,29.99,SSW,208,0.0,2.0,96,0.00,,,0.00,meteohub,2013-08-13 09:02:00,
2013-08-13 04:07:00,73.2,72.0,29.99,SSW,208,0.0,2.0,96,0.00,,,0.00,meteohub,2013-08-13 09:07:00,
2013-08-13 04:12:00,73.2,71.8,29.99,SSW,197,2.0,2.0,95,0.00,,,0.00,meteohub,2013-08-13 09:12:00,
2013-08-13 04:17:00,73.4,72.0,29.99,SW,214,0.0,3.0,95,0.00,,,0.00,meteohub,2013-08-13 09:17:00,
2013-08-13 04:22:00,73.4,72.0,29.99,SW,216,0.0,3.0,95,0.00,,,0.00,meteohub,2013-08-13 09:22:00,
2013-08-13 04:27:00,73.6,72.1,29.99,SSW,207,1.0,3.0,95,0.00,,,0.00,meteohub,2013-08-13 09:27:00,
2013-08-13 04:32:00,73.6,72.3,29.99,SW,214,0.0,3.0,96,0.00,,,0.00,meteohub,2013-08-13 09:32:00,
2013-08-13 04:37:00,73.8,72.5,29.99,South,181,0.0,3.0,96,0.00,,,0.00,meteohub,2013-08-13 09:37:00,
2013-08-13 04:42:00,73.9,72.7,29.99,SSW,197,0.0,3.0,96,0.00,,,0.00,meteohub,2013-08-13 09:42:00,
2013-08-13 04:47:00,73.9,72.7,29.99,SSW,202,1.0,3.0,96,0.00,,,0.00,meteohub,2013-08-13 09:47:00,
2013-08-13 04:52:00,73.9,72.7,29.99,SW,224,0.0,3.0,96,0.00,,,0.00,meteohub,2013-08-13 09:52:00,
2013-08-13 04:57:00,74.1,72.7,29.99,SW,224,0.0,3.0,95,0.00,,,0.00,meteohub,2013-08-13 09:57:00,
2013-08-13 05:02:00,74.1,72.7,29.99,WSW,258,1.0,3.0,95,0.00,,,0.00,meteohub,2013-08-13 10:02:00,
2013-08-13 05:07:00,73.9,72.5,29.99,WSW,254,2.0,2.0,95,0.00,,,0.00,meteohub,2013-08-13 10:07:00,
2013-08-13 05:12:00,74.1,72.7,30.00,West,270,0.0,5.0,95,0.00,,,0.00,meteohub,2013-08-13 10:12:00,
2013-08-13 05:17:00,73.9,72.5,30.00,West,270,0.0,5.0,95,0.00,,,0.00,meteohub,2013-08-13 10:17:00,
2013-08-13 05:22:00,73.9,72.7,30.00,SSW,205,0.0,5.0,96,0.00,,,0.00,meteohub,2013-08-13 10:22:00,
2013-08-13 05:27:00,73.9,72.7,30.00,SSW,205,0.0,3.0,96,0.00,,,0.00,meteohub,2013-08-13 10:27:00,
2013-08-13 05:32:00,73.9,72.7,30.00,WSW,245,1.0,2.0,96,0.00,,,0.00,meteohub,2013-08-13 10:32:00,
2013-08-13 05:37:00,73.9,72.7,30.00,WSW,245,1.0,5.0,96,0.00,,,0.00,meteohub,2013-08-13 10:37:00,
2013-08-13 05:42:00,73.9,72.7,30.00,WSW,245,0.0,5.0,96,0.00,,,0.00,meteohub,2013-08-13 10:42:00,
2013-08-13 05:47:00,73.9,72.7,30.00,WSW,245,0.0,5.0,96,0.00,,,0.00,meteohub,2013-08-13 10:47:00,
2013-08-13 05:52:00,73.9,72.7,30.00,WSW,245,0.0,2.0,96,0.00,,,0.00,meteohub,2013-08-13 10:52:00,
2013-08-13 05:57:00,73.9,72.7,30.01,WSW,245,0.0,2.0,96,0.00,,,0.00,meteohub,2013-08-13 10:57:00,
2013-08-13 06:02:00,73.9,72.7,30.01,WSW,245,0.0,2.0,96,0.00,,,0.00,meteohub,2013-08-13 11:02:00,
2013-08-13 06:07:00,74.1,72.9,30.01,West,266,0.0,4.0,96,0.00,,,0.00,meteohub,2013-08-13 11:07:00,
2013-08-13 06:12:00,74.1,72.9,30.01,West,266,0.0,4.0,96,0.00,,,0.00,meteohub,2013-08-13 11:12:00,
2013-08-13 06:17:00,74.1,72.9,30.01,West,266,1.0,4.0,96,0.00,,,0.00,meteohub,2013-08-13 11:17:00,
2013-08-13 06:22:00,73.9,72.7,30.01,West,269,0.0,3.0,96,0.00,,,0.00,meteohub,2013-08-13 11:22:00,
2013-08-13 06:27:00,73.9,72.7,30.02,West,269,1.0,3.0,96,0.00,,,0.00,meteohub,2013-08-13 11:27:00,
2013-08-13 06:32:00,73.9,72.7,30.02,West,269,0.0,3.0,96,0.00,,,0.00,meteohub,2013-08-13 11:32:00,
2013-08-13 06:37:00,73.8,72.5,30.02,West,269,1.0,1.0,96,0.00,,,0.00,meteohub,2013-08-13 11:37:00,
2013-08-13 06:42:00,73.8,72.5,30.02,West,269,2.0,2.0,96,0.00,,,0.00,meteohub,2013-08-13 11:42:00,
2013-08-13 06:47:00,73.6,72.3,30.02,West,270,1.0,3.0,96,0.00,,,0.00,meteohub,2013-08-13 11:47:00,
2013-08-13 06:52:00,73.6,72.3,30.02,West,281,1.0,3.0,96,0.00,,,0.00,meteohub,2013-08-13 11:52:00,
2013-08-13 06:57:00,73.6,72.3,30.02,WNW,282,0.0,3.0,96,0.00,,,0.00,meteohub,2013-08-13 11:57:00,
2013-08-13 07:02:00,73.8,72.5,30.02,West,281,1.0,3.0,96,0.00,,,0.00,meteohub,2013-08-13 12:02:00,
2013-08-13 07:07:00,73.9,72.7,30.02,West,281,0.0,3.0,96,0.00,,,0.00,meteohub,2013-08-13 12:07:00,
2013-08-13 07:12:00,74.1,72.9,30.02,West,281,1.0,3.0,96,0.00,,,0.00,meteohub,2013-08-13 12:12:00,
2013-08-13 07:17:00,74.3,73.0,30.02,West,281,1.0,2.0,96,0.00,,,0.00,meteohub,2013-08-13 12:17:00,
2013-08-13 07:22:00,74.7,73.4,30.03,West,281,2.0,2.0,96,0.00,,,0.00,meteohub,2013-08-13 12:22:00,
2013-08-13 07:27:00,74.8,73.6,30.03,West,264,2.0,4.0,96,0.00,,,0.00,meteohub,2013-08-13 12:27:00,
2013-08-13 07:32:00,75.2,73.9,30.03,West,276,2.0,4.0,96,0.00,,,0.00,meteohub,2013-08-13 12:32:00,
2013-08-13 07:37:00,75.6,73.9,30.02,WNW,283,2.0,4.0,95,0.00,,,0.00,meteohub,2013-08-13 12:37:00,
2013-08-13 07:42:00,75.7,74.1,30.03,West,280,4.0,4.0,95,0.00,,,0.00,meteohub,2013-08-13 12:42:00,
2013-08-13 07:47:00,76.1,74.5,30.03,West,265,4.0,6.0,95,0.00,,,0.00,meteohub,2013-08-13 12:47:00,
2013-08-13 07:52:00,76.5,74.8,30.03,WNW,282,3.0,6.0,95,0.00,,,0.00,meteohub,2013-08-13 12:52:00,
2013-08-13 07:57:00,76.8,75.2,30.03,West,276,1.0,6.0,95,0.00,,,0.00,meteohub,2013-08-13 12:57:00,
2013-08-13 08:02:00,77.2,75.4,30.03,West,278,1.0,6.0,94,0.00,,,0.00,meteohub,2013-08-13 13:02:00,
2013-08-13 08:07:00,77.5,75.7,30.03,West,268,2.0,6.0,94,0.00,,,0.00,meteohub,2013-08-13 13:07:00,
2013-08-13 08:12:00,77.7,75.9,30.03,West,259,2.0,6.0,94,0.00,,,0.00,meteohub,2013-08-13 13:12:00,
2013-08-13 08:17:00,78.1,75.9,30.03,West,280,2.0,6.0,93,0.00,,,0.00,meteohub,2013-08-13 13:17:00,
2013-08-13 08:22:00,78.4,76.3,30.03,West,280,3.0,7.0,93,0.00,,,0.00,meteohub,2013-08-13 13:22:00,
2013-08-13 08:27:00,78.6,76.5,30.03,WNW,289,5.0,7.0,93,0.00,,,0.00,meteohub,2013-08-13 13:27:00,
2013-08-13 08:32:00,78.8,75.9,30.03,West,276,6.0,7.0,91,0.00,,,0.00,meteohub,2013-08-13 13:32:00,
2013-08-13 08:37:00,79.2,76.3,30.03,WNW,293,4.0,8.0,91,0.00,,,0.00,meteohub,2013-08-13 13:37:00,
2013-08-13 08:42:00,79.2,76.3,30.03,WNW,285,0.0,8.0,91,0.00,,,0.00,meteohub,2013-08-13 13:42:00,
2013-08-13 08:47:00,79.5,76.6,30.03,West,272,4.0,7.0,91,0.00,,,0.00,meteohub,2013-08-13 13:47:00,
2013-08-13 08:52:00,79.7,76.5,30.03,West,272,4.0,9.0,90,0.00,,,0.00,meteohub,2013-08-13 13:52:00,
2013-08-13 08:57:00,79.9,76.6,30.03,WSW,243,0.0,9.0,90,0.00,,,0.00,meteohub,2013-08-13 13:57:00,
2013-08-13 09:02:00,80.1,76.1,30.03,NW,308,4.0,9.0,88,0.00,,,0.00,meteohub,2013-08-13 14:02:00,
2013-08-13 09:07:00,80.2,76.1,30.02,WNW,289,4.0,8.0,87,0.00,,,0.00,meteohub,2013-08-13 14:07:00,
2013-08-13 09:12:00,80.4,76.5,30.02,West,280,2.0,9.0,88,0.00,,,0.00,meteohub,2013-08-13 14:12:00,
2013-08-13 09:17:00,80.8,76.3,30.02,WNW,299,5.0,9.0,86,0.00,,,0.00,meteohub,2013-08-13 14:17:00,
2013-08-13 09:22:00,81.1,76.5,30.03,WNW,288,4.0,9.0,86,0.00,,,0.00,meteohub,2013-08-13 14:22:00,
2013-08-13 09:27:00,81.1,76.3,30.03,West,276,7.0,9.0,85,0.00,,,0.00,meteohub,2013-08-13 14:27:00,
2013-08-13 09:32:00,81.5,76.5,30.02,West,269,6.0,9.0,85,0.00,,,0.00,meteohub,2013-08-13 14:32:00,
2013-08-13 09:37:00,81.9,77.2,30.02,WNW,287,2.0,10.0,86,0.00,,,0.00,meteohub,2013-08-13 14:37:00,
2013-08-13 09:42:00,82.0,77.0,30.02,NW,306,3.0,10.0,85,0.00,,,0.00,meteohub,2013-08-13 14:42:00,
2013-08-13 09:47:00,82.0,76.3,30.02,WNW,289,6.0,10.0,83,0.00,,,0.00,meteohub,2013-08-13 14:47:00,
2013-08-13 09:52:00,82.0,76.3,30.02,WNW,289,7.0,11.0,83,0.00,,,0.00,meteohub,2013-08-13 14:52:00,
2013-08-13 09:57:00,82.4,76.6,30.02,West,274,8.0,12.0,83,0.00,,,0.00,meteohub,2013-08-13 14:57:00,
2013-08-13 10:02:00,82.6,76.5,30.02,WNW,293,4.0,12.0,82,0.00,,,0.00,meteohub,2013-08-13 15:02:00,
2013-08-13 10:07:00,82.8,77.0,30.02,West,276,6.0,12.0,83,0.00,,,0.00,meteohub,2013-08-13 15:07:00,
2013-08-13 10:12:00,82.9,77.2,30.02,West,266,3.0,10.0,83,0.00,,,0.00,meteohub,2013-08-13 15:12:00,
2013-08-13 10:17:00,83.1,76.6,30.02,WSW,240,5.0,10.0,81,0.00,,,0.00,meteohub,2013-08-13 15:17:00,
2013-08-13 10:22:00,83.5,77.0,30.02,West,278,6.0,10.0,81,0.00,,,0.00,meteohub,2013-08-13 15:22:00,
2013-08-13 10:27:00,83.7,77.5,30.02,WNW,300,2.0,10.0,82,0.00,,,0.00,meteohub,2013-08-13 15:27:00,
2013-08-13 10:32:00,84.0,77.5,30.02,WSW,241,0.0,10.0,81,0.00,,,0.00,meteohub,2013-08-13 15:32:00,
2013-08-13 10:37:00,84.0,77.2,30.03,West,281,2.0,8.0,80,0.00,,,0.00,meteohub,2013-08-13 15:37:00,
2013-08-13 10:42:00,84.4,77.2,30.03,WNW,290,5.0,8.0,79,0.00,,,0.00,meteohub,2013-08-13 15:42:00,
2013-08-13 10:47:00,84.6,77.0,30.03,WNW,296,0.0,10.0,78,0.00,,,0.00,meteohub,2013-08-13 15:47:00,
2013-08-13 10:52:00,84.7,77.9,30.04,West,273,5.0,10.0,80,0.00,,,0.00,meteohub,2013-08-13 15:52:00,
2013-08-13 10:57:00,84.9,77.7,30.04,West,268,3.0,10.0,79,0.00,,,0.00,meteohub,2013-08-13 15:57:00,
2013-08-13 11:02:00,84.9,77.4,30.03,WSW,258,3.0,10.0,78,0.00,,,0.00,meteohub,2013-08-13 16:02:00,
2013-08-13 11:07:00,84.9,77.4,30.03,WNW,283,4.0,10.0,78,0.00,,,0.00,meteohub,2013-08-13 16:07:00,
2013-08-13 11:12:00,85.3,77.7,30.03,WNW,286,1.0,10.0,78,0.00,,,0.00,meteohub,2013-08-13 16:12:00,
2013-08-13 11:17:00,85.3,77.7,30.03,WNW,290,1.0,10.0,78,0.00,,,0.00,meteohub,2013-08-13 16:17:00,
2013-08-13 11:22:00,84.9,77.4,30.03,WNW,293,1.0,8.0,78,0.00,,,0.00,meteohub,2013-08-13 16:22:00,
2013-08-13 11:27:00,84.9,77.7,30.03,WNW,285,0.0,6.0,79,0.00,,,0.00,meteohub,2013-08-13 16:27:00,
2013-08-13 11:32:00,84.7,77.9,30.02,NE,39,0.0,6.0,80,0.00,,,0.00,meteohub,2013-08-13 16:32:00,
2013-08-13 11:37:00,84.7,77.5,30.02,West,272,1.0,5.0,79,0.00,,,0.00,meteohub,2013-08-13 16:37:00,
2013-08-13 11:42:00,85.3,77.2,30.01,West,276,0.0,5.0,77,0.00,,,0.00,meteohub,2013-08-13 16:42:00,
2013-08-13 11:47:00,85.5,77.7,30.01,West,280,1.0,5.0,78,0.00,,,0.00,meteohub,2013-08-13 16:47:00,
2013-08-13 11:52:00,85.6,77.5,30.01,NNW,334,0.0,5.0,77,0.00,,,0.00,meteohub,2013-08-13 16:52:00,
2013-08-13 11:57:00,86.0,77.2,30.01,West,273,3.0,4.0,75,0.00,,,0.00,meteohub,2013-08-13 16:57:00,
2013-08-13 12:02:00,86.5,78.1,30.01,WSW,251,4.0,7.0,76,0.00,,,0.00,meteohub,2013-08-13 17:02:00,
2013-08-13 12:07:00,86.5,77.2,30.01,WNW,299,4.0,7.0,74,0.00,,,0.00,meteohub,2013-08-13 17:07:00,
2013-08-13 12:12:00,86.0,77.5,30.01,West,276,3.0,7.0,76,0.00,,,0.00,meteohub,2013-08-13 17:12:00,
2013-08-13 12:18:00,85.8,77.4,30.00,West,281,3.0,8.0,76,0.00,,,0.00,meteohub,2013-08-13 17:18:00,
2013-08-13 12:23:00,85.6,76.5,30.00,West,273,3.0,8.0,74,0.00,,,0.00,meteohub,2013-08-13 17:23:00,
2013-08-13 12:28:00,85.5,77.0,30.00,WNW,302,3.0,8.0,76,0.00,,,0.00,meteohub,2013-08-13 17:28:00,
2013-08-13 12:33:00,85.6,77.5,30.00,West,264,3.0,8.0,77,0.00,,,0.00,meteohub,2013-08-13 17:33:00,
2013-08-13 12:38:00,86.0,77.2,30.00,West,260,4.0,10.0,75,0.00,,,0.00,meteohub,2013-08-13 17:38:00,
2013-08-13 12:43:00,85.8,76.6,29.99,West,276,3.0,10.0,74,0.00,,,0.00,meteohub,2013-08-13 17:43:00,
2013-08-13 12:48:00,86.2,77.7,29.99,WSW,251,1.0,10.0,76,0.00,,,0.00,meteohub,2013-08-13 17:48:00,
2013-08-13 12:54:00,86.4,77.0,29.99,WSW,243,4.0,9.0,74,0.00,,,0.00,meteohub,2013-08-13 17:54:00,
2013-08-13 12:59:00,85.8,76.1,29.99,WNW,283,7.0,8.0,73,0.00,,,0.00,meteohub,2013-08-13 17:59:00,
2013-08-13 13:04:00,84.9,76.5,29.99,West,261,2.0,6.0,76,0.00,,,0.00,meteohub,2013-08-13 18:04:00,
2013-08-13 13:09:00,85.3,77.2,29.99,West,273,3.0,9.0,77,0.00,,,0.00,meteohub,2013-08-13 18:09:00,
2013-08-13 13:14:00,85.6,77.5,29.99,WSW,245,2.0,9.0,77,0.00,,,0.00,meteohub,2013-08-13 18:14:00,
2013-08-13 13:19:00,85.8,77.4,29.99,West,276,3.0,7.0,76,0.00,,,0.00,meteohub,2013-08-13 18:19:00,
2013-08-13 13:25:00,86.4,76.3,29.99,WNW,286,3.0,7.0,72,0.00,,,0.00,meteohub,2013-08-13 18:25:00,
2013-08-13 13:30:00,86.9,76.8,29.98,SW,233,3.0,7.0,72,0.00,,,0.00,meteohub,2013-08-13 18:30:00,
2013-08-13 13:35:00,87.4,76.5,29.98,West,268,7.0,8.0,70,0.00,,,0.00,meteohub,2013-08-13 18:35:00,
2013-08-13 13:40:00,87.4,76.8,29.98,WNW,295,1.0,8.0,71,0.00,,,0.00,meteohub,2013-08-13 18:40:00,
2013-08-13 13:45:00,87.3,76.3,29.97,West,273,4.0,9.0,70,0.00,,,0.00,meteohub,2013-08-13 18:45:00,
2013-08-13 13:50:00,87.4,77.4,29.97,WSW,258,3.0,9.0,72,0.00,,,0.00,meteohub,2013-08-13 18:50:00,
2013-08-13 13:55:00,88.2,76.6,29.96,West,263,4.0,7.0,69,0.00,,,0.00,meteohub,2013-08-13 18:55:00,
2013-08-13 14:00:00,88.2,77.9,29.97,NW,305,3.0,8.0,72,0.00,,,0.00,meteohub,2013-08-13 19:00:00,
2013-08-13 14:06:00,87.4,77.7,29.97,WSW,256,4.0,8.0,73,0.00,,,0.00,meteohub,2013-08-13 19:06:00,
2013-08-13 14:11:00,88.2,77.9,29.97,West,277,11.0,11.0,72,0.00,,,0.00,meteohub,2013-08-13 19:11:00,
2013-08-13 14:16:00,87.8,77.7,29.97,WSW,241,8.0,13.0,72,0.00,,,0.00,meteohub,2013-08-13 19:16:00,
2013-08-13 14:21:00,87.1,76.5,29.97,WSW,257,5.0,13.0,71,0.00,,,0.00,meteohub,2013-08-13 19:21:00,
2013-08-13 14:26:00,86.5,76.8,29.97,WNW,300,3.0,13.0,73,0.00,,,0.00,meteohub,2013-08-13 19:26:00,
2013-08-13 14:31:00,85.8,77.4,29.96,WNW,288,9.0,9.0,76,0.00,,,0.00,meteohub,2013-08-13 19:31:00,
2013-08-13 14:36:00,83.7,76.8,29.96,WNW,289,11.0,11.0,80,0.00,,,0.00,meteohub,2013-08-13 19:36:00,
2013-08-13 14:41:00,82.0,76.3,29.96,West,278,2.0,11.0,83,0.00,,,0.00,meteohub,2013-08-13 19:41:00,
2013-08-13 14:47:00,81.3,76.5,29.96,WSW,248,0.0,11.0,85,0.00,,,0.00,meteohub,2013-08-13 19:47:00,
2013-08-13 14:52:00,81.0,76.5,29.96,WNW,283,2.0,11.0,86,0.00,,,0.00,meteohub,2013-08-13 19:52:00,
2013-08-13 14:57:00,80.4,76.1,29.96,West,262,3.0,7.0,87,0.00,,,0.00,meteohub,2013-08-13 19:57:00,
2013-08-13 15:02:00,80.2,76.3,29.96,West,266,3.0,5.0,88,0.00,,,0.00,meteohub,2013-08-13 20:02:00,
2013-08-13 15:07:00,80.2,76.3,29.96,WNW,283,7.0,7.0,88,0.00,,,0.00,meteohub,2013-08-13 20:07:00,
2013-08-13 15:12:00,80.4,76.5,29.96,West,263,6.0,10.0,88,0.00,,,0.00,meteohub,2013-08-13 20:12:00,
2013-08-13 15:17:00,80.6,76.6,29.96,WNW,284,6.0,10.0,88,0.00,,,0.00,meteohub,2013-08-13 20:17:00,
2013-08-13 15:22:00,80.8,76.8,29.96,North,359,5.0,10.0,88,0.00,,,0.00,meteohub,2013-08-13 20:22:00,
2013-08-13 15:27:00,80.8,76.8,29.95,WSW,256,3.0,9.0,88,0.00,,,0.00,meteohub,2013-08-13 20:27:00,
2013-08-13 15:32:00,80.8,76.8,29.95,West,279,4.0,9.0,88,0.00,,,0.00,meteohub,2013-08-13 20:32:00,
2013-08-13 15:37:00,80.8,76.8,29.95,West,263,3.0,9.0,88,0.00,,,0.00,meteohub,2013-08-13 20:37:00,
2013-08-13 15:42:00,81.0,77.0,29.95,WSW,237,5.0,9.0,88,0.00,,,0.00,meteohub,2013-08-13 20:42:00,
2013-08-13 15:47:00,81.0,76.6,29.95,West,268,2.0,9.0,87,0.00,,,0.00,meteohub,2013-08-13 20:47:00,
2013-08-13 15:52:00,80.8,76.5,29.95,WNW,289,2.0,6.0,87,0.00,,,0.00,meteohub,2013-08-13 20:52:00,
2013-08-13 15:57:00,80.6,76.3,29.95,West,277,0.0,7.0,87,0.00,,,0.00,meteohub,2013-08-13 20:57:00,
2013-08-13 16:02:00,80.4,75.9,29.95,West,266,3.0,7.0,86,0.00,,,0.00,meteohub,2013-08-13 21:02:00,
2013-08-13 16:07:00,80.2,75.7,29.95,West,265,2.0,7.0,86,0.00,,,0.00,meteohub,2013-08-13 21:07:00,
2013-08-13 16:12:00,80.2,76.1,29.94,WSW,241,0.0,6.0,87,0.00,,,0.00,meteohub,2013-08-13 21:12:00,
2013-08-13 16:17:00,80.1,75.6,29.94,WSW,244,3.0,6.0,86,0.00,,,0.00,meteohub,2013-08-13 21:17:00,
2013-08-13 16:22:00,80.1,75.9,29.94,West,269,2.0,8.0,87,0.00,,,0.00,meteohub,2013-08-13 21:22:00,
2013-08-13 16:27:00,79.9,75.4,29.94,West,263,3.0,8.0,86,0.00,,,0.00,meteohub,2013-08-13 21:27:00,
2013-08-13 16:32:00,79.5,75.4,29.94,WSW,251,3.0,8.0,87,0.00,,,0.00,meteohub,2013-08-13 21:32:00,
2013-08-13 16:37:00,79.3,75.2,29.94,West,276,2.0,8.0,87,0.00,,,0.00,meteohub,2013-08-13 21:37:00,
2013-08-13 16:42:00,79.2,75.4,29.94,WSW,248,4.0,8.0,88,0.00,,,0.00,meteohub,2013-08-13 21:42:00,
2013-08-13 16:47:00,79.0,75.2,29.93,West,280,6.0,8.0,88,0.00,,,0.00,meteohub,2013-08-13 21:47:00,
2013-08-13 16:52:00,78.8,75.0,29.93,West,277,2.0,10.0,88,0.00,,,0.00,meteohub,2013-08-13 21:52:00,
2013-08-13 16:57:00,78.8,75.0,29.93,West,268,3.0,10.0,88,0.00,,,0.00,meteohub,2013-08-13 21:57:00,
2013-08-13 17:02:00,78.6,74.8,29.94,West,263,2.0,10.0,88,0.00,,,0.00,meteohub,2013-08-13 22:02:00,
2013-08-13 17:07:00,78.3,74.1,29.94,WNW,286,7.0,7.0,87,0.00,,,0.00,meteohub,2013-08-13 22:07:00,
2013-08-13 17:12:00,78.1,74.3,29.95,WNW,286,1.0,7.0,88,0.00,,,0.00,meteohub,2013-08-13 22:12:00,
2013-08-13 17:17:00,78.1,74.5,29.95,WNW,290,2.0,7.0,89,0.00,,,0.00,meteohub,2013-08-13 22:17:00,
2013-08-13 17:22:00,78.1,74.3,29.95,West,262,3.0,8.0,88,0.00,,,0.00,meteohub,2013-08-13 22:22:00,
2013-08-13 17:27:00,77.9,74.1,29.96,WSW,237,4.0,8.0,88,0.00,,,0.00,meteohub,2013-08-13 22:27:00,
2013-08-13 17:32:00,77.7,74.3,29.96,West,276,1.0,8.0,89,0.00,,,0.00,meteohub,2013-08-13 22:32:00,
2013-08-13 17:37:00,77.7,74.3,29.95,WNW,285,4.0,8.0,89,0.00,,,0.00,meteohub,2013-08-13 22:37:00,
2013-08-13 17:42:00,77.5,74.3,29.95,West,269,3.0,6.0,90,0.00,,,0.00,meteohub,2013-08-13 22:42:00,
2013-08-13 17:47:00,77.5,74.3,29.96,WSW,247,5.0,6.0,90,0.00,,,0.00,meteohub,2013-08-13 22:47:00,
2013-08-13 17:52:00,77.5,74.3,29.96,WSW,250,4.0,9.0,90,0.00,,,0.00,meteohub,2013-08-13 22:52:00,
2013-08-13 17:58:00,77.4,74.1,29.95,WSW,244,5.0,9.0,90,0.00,,,0.00,meteohub,2013-08-13 22:58:00,
2013-08-13 18:03:00,77.4,74.5,29.95,WNW,287,2.0,9.0,91,0.00,,,0.00,meteohub,2013-08-13 23:03:00,
2013-08-13 18:08:00,77.5,74.7,29.95,West,260,3.0,7.0,91,0.00,,,0.00,meteohub,2013-08-13 23:08:00,
2013-08-13 18:13:00,77.5,74.7,29.95,West,271,1.0,6.0,91,0.00,,,0.00,meteohub,2013-08-13 23:13:00,
2013-08-13 18:18:00,77.5,74.7,29.94,WNW,291,5.0,6.0,91,0.00,,,0.00,meteohub,2013-08-13 23:18:00,
2013-08-13 18:23:00,77.5,74.7,29.95,West,275,3.0,5.0,91,0.00,,,0.00,meteohub,2013-08-13 23:23:00,
2013-08-13 18:28:00,77.7,74.8,29.95,WNW,289,2.0,6.0,91,0.00,,,0.00,meteohub,2013-08-13 23:28:00,
2013-08-13 18:34:00,77.7,74.8,29.95,West,265,2.0,6.0,91,0.00,,,0.00,meteohub,2013-08-13 23:34:00,
2013-08-13 18:39:00,77.7,74.8,29.95,West,280,3.0,6.0,91,0.00,,,0.00,meteohub,2013-08-13 23:39:00,
2013-08-13 18:44:00,77.5,74.7,29.95,West,266,1.0,5.0,91,0.00,,,0.00,meteohub,2013-08-13 23:44:00,
2013-08-13 18:49:00,77.4,74.5,29.95,WNW,291,2.0,5.0,91,0.00,,,0.00,meteohub,2013-08-13 23:49:00,
2013-08-13 18:54:00,77.4,74.5,29.95,West,269,3.0,5.0,91,0.00,,,0.00,meteohub,2013-08-13 23:54:00,
2013-08-13 18:59:00,77.4,74.8,29.95,West,275,3.0,5.0,92,0.00,,,0.00,meteohub,2013-08-13 23:59:00,
2013-08-13 19:04:00,77.2,74.7,29.95,WSW,251,1.0,5.0,92,0.00,,,0.00,meteohub,2013-08-14 00:04:00,
2013-08-13 19:09:00,77.2,74.7,29.95,WSW,244,0.0,5.0,92,0.00,,,0.00,meteohub,2013-08-14 00:09:00,
2013-08-13 19:15:00,77.0,74.5,29.96,WSW,243,0.0,5.0,92,0.00,,,0.00,meteohub,2013-08-14 00:15:00,
2013-08-13 19:20:00,76.8,74.3,29.96,WSW,245,1.0,5.0,92,0.00,,,0.00,meteohub,2013-08-14 00:20:00,
2013-08-13 19:25:00,76.8,74.7,29.96,SSW,210,0.0,2.0,93,0.00,,,0.00,meteohub,2013-08-14 00:25:00,
2013-08-13 19:30:00,76.5,74.3,29.96,SW,226,0.0,3.0,93,0.00,,,0.00,meteohub,2013-08-14 00:30:00,
2013-08-13 19:35:00,76.3,74.1,29.96,South,186,0.0,3.0,93,0.00,,,0.00,meteohub,2013-08-14 00:35:00,
2013-08-13 19:40:00,76.1,73.9,29.96,WSW,239,0.0,4.0,93,0.00,,,0.00,meteohub,2013-08-14 00:40:00,
2013-08-13 19:45:00,75.9,74.1,29.95,West,261,2.0,4.0,94,0.00,,,0.00,meteohub,2013-08-14 00:45:00,
2013-08-13 19:50:00,75.7,73.9,29.96,WSW,247,0.0,4.0,94,0.00,,,0.00,meteohub,2013-08-14 00:50:00,
2013-08-13 19:56:00,75.7,73.9,29.96,WSW,247,0.0,4.0,94,0.00,,,0.00,meteohub,2013-08-14 00:56:00,
2013-08-13 20:01:00,75.6,73.8,29.96,WSW,247,1.0,4.0,94,0.00,,,0.00,meteohub,2013-08-14 01:01:00,
2013-08-13 20:06:00,75.6,73.8,29.96,West,270,3.0,3.0,94,0.00,,,0.00,meteohub,2013-08-14 01:06:00,
2013-08-13 20:11:00,75.4,73.6,29.96,West,265,3.0,4.0,94,0.00,,,0.00,meteohub,2013-08-14 01:11:00,
2013-08-13 20:16:00,75.4,73.6,29.96,West,259,2.0,5.0,94,0.00,,,0.00,meteohub,2013-08-14 01:16:00,
2013-08-13 20:21:00,75.4,73.6,29.95,West,268,4.0,5.0,94,0.00,,,0.00,meteohub,2013-08-14 01:21:00,
2013-08-13 20:27:00,75.4,73.2,29.95,West,266,2.0,5.0,93,0.00,,,0.00,meteohub,2013-08-14 01:27:00,
2013-08-13 20:32:00,75.4,73.2,29.96,West,273,3.0,5.0,93,0.00,,,0.00,meteohub,2013-08-14 01:32:00,
2013-08-13 20:37:00,75.2,73.0,29.96,West,270,1.0,5.0,93,0.00,,,0.00,meteohub,2013-08-14 01:37:00,
2013-08-13 20:42:00,75.2,73.4,29.96,WSW,256,5.0,5.0,94,0.00,,,0.00,meteohub,2013-08-14 01:42:00,
2013-08-13 20:47:00,75.0,73.2,29.96,West,276,1.0,6.0,94,0.00,,,0.00,meteohub,2013-08-14 01:47:00,
2013-08-13 20:52:00,75.0,73.2,29.96,West,276,0.0,6.0,94,0.00,,,0.00,meteohub,2013-08-14 01:52:00,
2013-08-13 20:57:00,75.0,73.2,29.96,West,276,0.0,6.0,94,0.00,,,0.00,meteohub,2013-08-14 01:57:00,
2013-08-13 21:02:00,75.0,73.2,29.96,West,276,0.0,3.0,94,0.00,,,0.00,meteohub,2013-08-14 02:02:00,
2013-08-13 21:07:00,74.8,73.0,29.96,West,276,0.0,2.0,94,0.00,,,0.00,meteohub,2013-08-14 02:07:00,
2013-08-13 21:12:00,74.8,73.0,29.96,West,276,1.0,2.0,94,0.00,,,0.00,meteohub,2013-08-14 02:12:00,
2013-08-13 21:17:00,74.8,73.0,29.96,West,276,1.0,2.0,94,0.00,,,0.00,meteohub,2013-08-14 02:17:00,
2013-08-13 21:22:00,74.8,73.0,29.96,West,276,1.0,1.0,94,0.00,,,0.00,meteohub,2013-08-14 02:22:00,
2013-08-13 21:27:00,74.8,73.0,29.96,West,276,0.0,3.0,94,0.00,,,0.00,meteohub,2013-08-14 02:27:00,
2013-08-13 21:32:00,74.8,73.0,29.96,West,276,0.0,3.0,94,0.00,,,0.00,meteohub,2013-08-14 02:32:00,
2013-08-13 21:37:00,74.8,73.0,29.96,West,276,0.0,3.0,94,0.00,,,0.00,meteohub,2013-08-14 02:37:00,
2013-08-13 21:42:00,74.8,73.0,29.96,West,276,0.0,0.0,94,0.00,,,0.00,meteohub,2013-08-14 02:42:00,
2013-08-13 21:47:00,74.8,73.0,29.96,West,276,0.0,0.0,94,0.00,,,0.00,meteohub,2013-08-14 02:47:00,
2013-08-13 21:52:00,74.8,73.0,29.96,West,276,0.0,1.0,94,0.00,,,0.00,meteohub,2013-08-14 02:52:00,
2013-08-13 21:58:00,74.8,73.0,29.96,West,276,0.0,1.0,94,0.00,,,0.00,meteohub,2013-08-14 02:58:00,
2013-08-13 22:03:00,74.7,72.9,29.96,West,276,0.0,1.0,94,0.00,,,0.00,meteohub,2013-08-14 03:03:00,
2013-08-13 22:08:00,74.7,72.9,29.96,West,276,0.0,1.0,94,0.00,,,0.00,meteohub,2013-08-14 03:08:00,
2013-08-13 22:13:00,74.7,72.9,29.96,West,276,0.0,1.0,94,0.00,,,0.00,meteohub,2013-08-14 03:13:00,
2013-08-13 22:18:00,74.7,72.9,29.96,West,276,0.0,1.0,94,0.00,,,0.00,meteohub,2013-08-14 03:18:00,
2013-08-13 22:24:00,74.8,73.0,29.97,West,276,0.0,1.0,94,0.00,,,0.00,meteohub,2013-08-14 03:24:00,
2013-08-13 22:29:00,74.8,73.0,29.97,West,276,0.0,2.0,94,0.00,,,0.00,meteohub,2013-08-14 03:29:00,
2013-08-13 22:34:00,74.8,73.0,29.97,West,276,0.0,2.0,94,0.00,,,0.00,meteohub,2013-08-14 03:34:00,
2013-08-13 22:39:00,74.8,73.0,29.97,South,174,1.0,3.0,94,0.00,,,0.00,meteohub,2013-08-14 03:39:00,
2013-08-13 22:44:00,74.8,73.0,29.97,WSW,254,2.0,3.0,94,0.00,,,0.00,meteohub,2013-08-14 03:44:00,
2013-08-13 22:49:00,74.8,73.0,29.96,WSW,255,0.0,3.0,94,0.00,,,0.00,meteohub,2013-08-14 03:49:00,
2013-08-13 22:54:00,74.7,72.9,29.96,WSW,255,0.0,2.0,94,0.00,,,0.00,meteohub,2013-08-14 03:54:00,
2013-08-13 22:59:00,74.7,72.9,29.96,WSW,255,0.0,2.0,94,0.00,,,0.00,meteohub,2013-08-14 03:59:00,
2013-08-13 23:01:00,74.7,72.9,29.96,WSW,255,0.0,2.0,94,0.00,,,0.00,meteohub,2013-08-14 04:01:00,
2013-08-13 23:02:00,74.7,72.9,29.96,WSW,255,0.0,2.0,94,0.00,,,0.00,meteohub,2013-08-14 04:02:00,
2013-08-13 23:03:00,74.7,72.9,29.96,WSW,255,0.0,2.0,94,0.00,,,0.00,meteohub,2013-08-14 04:03:00,
2013-08-13 23:09:00,74.7,72.9,29.96,WSW,255,0.0,1.0,94,0.00,,,0.00,meteohub,2013-08-14 04:09:00,
2013-08-13 23:14:00,74.7,72.9,29.96,WSW,255,0.0,0.0,94,0.00,,,0.00,meteohub,2013-08-14 04:14:00,
2013-08-13 23:19:00,74.5,73.0,29.96,WSW,255,0.0,0.0,95,0.00,,,0.00,meteohub,2013-08-14 04:19:00,
2013-08-13 23:24:00,74.5,73.0,29.96,WSW,255,0.0,0.0,95,0.00,,,0.00,meteohub,2013-08-14 04:24:00,
2013-08-13 23:29:00,74.5,73.0,29.96,WSW,255,0.0,0.0,95,0.00,,,0.00,meteohub,2013-08-14 04:29:00,
2013-08-13 23:34:00,74.5,73.0,29.96,WSW,255,0.0,0.0,95,0.00,,,0.00,meteohub,2013-08-14 04:34:00,
2013-08-13 23:39:00,74.5,73.0,29.96,WSW,255,0.0,0.0,95,0.00,,,0.00,meteohub,2013-08-14 04:39:00,
2013-08-13 23:44:00,74.5,73.0,29.96,WSW,255,0.0,0.0,95,0.00,,,0.00,meteohub,2013-08-14 04:44:00,
2013-08-13 23:50:00,74.3,72.9,29.96,WSW,255,1.0,1.0,95,0.00,,,0.00,meteohub,2013-08-14 04:50:00,
2013-08-13 23:55:00,74.3,72.9,29.96,SSW,209,0.0,1.0,95,0.00,,,0.00,meteohub,2013-08-14 04:55:00,